Time;durP1;ratioP1;P1;durP2;ratioP2;P2;SDS_P1;SDS_P2;PMS_P1;PMS_P2;Temp;Humidity;BMP_temperature;BMP_pressure;BME280_temperature;BME280_humidity;BME280_pressure;Samples;Min_cycle;Max_cycle;Signal;HPM_P1;HPM_P2
2021/05/14 00:02:12;;;;;;;29.33;18.95;;;;;;;;;;5013900;28;20114;-84
2021/05/14 00:04:42;;;;;;;27.58;18.33;;;;;;;;;;5009891;28;20050;-85
2021/05/14 00:07:10;;;;;;;28.92;18.45;;;;;;;;;;4991291;28;20319;-85
2021/05/14 00:09:41;;;;;;;30.90;20.95;;;;;;;;;;4991256;28;20071;-84
2021/05/14 00:12:24;;;;;;;36.15;21.15;;;;;;;;;;4990617;28;20137;-84
2021/05/14 00:14:58;;;;;;;37.40;21.88;;;;;;;;;;4991260;28;20061;-85
2021/05/14 00:17:28;;;;;;;40.70;24.70;;;;;;;;;;4990302;28;20050;-85
2021/05/14 00:19:56;;;;;;;40.05;23.35;;;;;;;;;;4990561;28;20058;-85
2021/05/14 00:22:30;;;;;;;45.83;25.67;;;;;;;;;;4988853;28;20235;-85
2021/05/14 00:24:59;;;;;;;43.03;25.67;;;;;;;;;;5005446;28;20054;-84
2021/05/14 00:27:33;;;;;;;39.72;23.45;;;;;;;;;;5006793;28;20065;-84
2021/05/14 00:30:04;;;;;;;44.75;25.98;;;;;;;;;;5005818;28;20056;-85
2021/05/14 00:32:36;;;;;;;45.00;26.23;;;;;;;;;;5005339;28;20077;-85
2021/05/14 00:35:04;;;;;;;42.58;25.83;;;;;;;;;;4989009;28;20068;-84
2021/05/14 00:37:37;;;;;;;39.25;24.48;;;;;;;;;;4989819;28;20161;-85
2021/05/14 00:40:13;;;;;;;43.35;25.48;;;;;;;;;;4988930;28;20477;-85
2021/05/14 00:42:47;;;;;;;45.22;26.00;;;;;;;;;;4989630;28;20058;-85
2021/05/14 00:45:26;;;;;;;39.78;24.65;;;;;;;;;;4990867;28;20061;-85
2021/05/14 00:47:56;;;;;;;40.80;23.63;;;;;;;;;;5005656;28;20073;-84
2021/05/14 00:50:24;;;;;;;38.67;22.05;;;;;;;;;;4987917;28;20058;-85
2021/05/14 00:52:56;;;;;;;36.78;22.25;;;;;;;;;;4988487;28;20406;-85
2021/05/14 00:55:27;;;;;;;33.25;21.15;;;;;;;;;;4989723;28;20082;-85
2021/05/14 00:57:56;;;;;;;36.67;21.98;;;;;;;;;;5005981;28;20085;-85
2021/05/14 01:00:23;;;;;;;36.88;21.73;;;;;;;;;;4989362;28;20062;-85
2021/05/14 01:02:58;;;;;;;34.75;22.27;;;;;;;;;;4989665;28;20050;-85
2021/05/14 01:05:36;;;;;;;32.15;20.80;;;;;;;;;;4988661;28;20054;-85
2021/05/14 01:08:04;;;;;;;32.85;19.27;;;;;;;;;;5006181;28;20152;-85
2021/05/14 01:10:32;;;;;;;31.00;20.23;;;;;;;;;;5005367;28;20054;-85
2021/05/14 01:13:00;;;;;;;32.00;20.92;;;;;;;;;;4988200;28;20141;-85
2021/05/14 01:15:31;;;;;;;32.45;19.67;;;;;;;;;;4988267;28;20358;-85
2021/05/14 01:18:00;;;;;;;29.67;18.80;;;;;;;;;;4987880;28;20152;-86
2021/05/14 01:20:31;;;;;;;36.40;20.40;;;;;;;;;;4988504;28;20054;-85
2021/05/14 01:23:01;;;;;;;32.33;18.17;;;;;;;;;;4987057;28;20054;-85
2021/05/14 01:25:32;;;;;;;32.30;19.35;;;;;;;;;;4988186;28;20058;-86
2021/05/14 01:28:00;;;;;;;29.45;18.88;;;;;;;;;;4987806;28;20178;-85
2021/05/14 01:30:30;;;;;;;35.65;19.23;;;;;;;;;;4987217;28;20153;-86
2021/05/14 01:32:58;;;;;;;30.92;17.88;;;;;;;;;;5004042;28;20066;-85
2021/05/14 01:35:29;;;;;;;31.88;17.17;;;;;;;;;;4988380;28;20066;-85
2021/05/14 01:38:12;;;;;;;25.10;16.17;;;;;;;;;;5003487;28;20058;-85
2021/05/14 01:40:40;;;;;;;32.22;17.02;;;;;;;;;;4999408;28;20042;-85
2021/05/14 01:43:14;;;;;;;37.70;20.33;;;;;;;;;;5000129;28;20096;-85
2021/05/14 01:45:43;;;;;;;33.05;18.65;;;;;;;;;;4990185;28;20064;-85
2021/05/14 01:48:12;;;;;;;34.50;19.77;;;;;;;;;;4989481;28;20058;-85
2021/05/14 01:50:45;;;;;;;32.00;18.80;;;;;;;;;;4994719;28;20050;-85
2021/05/14 01:53:15;;;;;;;31.02;17.10;;;;;;;;;;5015009;28;20062;-85
2021/05/14 01:55:43;;;;;;;28.98;17.50;;;;;;;;;;4988323;28;20050;-86
2021/05/14 01:58:14;;;;;;;33.10;18.83;;;;;;;;;;4987885;28;20054;-86
2021/05/14 02:00:41;;;;;;;21.60;14.55;;;;;;;;;;4986845;28;20081;-86
2021/05/14 02:03:10;;;;;;;23.48;13.43;;;;;;;;;;5004328;28;20061;-85
2021/05/14 02:05:39;;;;;;;22.88;12.90;;;;;;;;;;4990884;28;20149;-85
2021/05/14 02:08:06;;;;;;;21.77;12.48;;;;;;;;;;4989808;28;20389;-85
2021/05/14 02:10:39;;;;;;;25.52;11.93;;;;;;;;;;5010885;28;20077;-86
2021/05/14 02:13:14;;;;;;;22.67;12.73;;;;;;;;;;4999913;28;20038;-85
2021/05/14 02:15:44;;;;;;;19.80;11.30;;;;;;;;;;4998698;28;20097;-85
2021/05/14 02:18:18;;;;;;;20.23;12.93;;;;;;;;;;4998611;28;20073;-85
2021/05/14 02:20:46;;;;;;;24.95;12.05;;;;;;;;;;4992472;28;20090;-85
2021/05/14 02:23:19;;;;;;;23.92;12.32;;;;;;;;;;4987873;28;20304;-85
2021/05/14 02:25:56;;;;;;;18.95;11.13;;;;;;;;;;4987493;28;20089;-85
2021/05/14 02:28:26;;;;;;;19.98;12.75;;;;;;;;;;4971647;28;20073;-85
2021/05/14 02:30:54;;;;;;;23.40;13.73;;;;;;;;;;4986592;28;20385;-85
2021/05/14 02:33:24;;;;;;;21.20;14.07;;;;;;;;;;5003345;28;20058;-85
2021/05/14 02:35:54;;;;;;;26.30;15.27;;;;;;;;;;4984132;28;20379;-85
2021/05/14 02:38:40;;;;;;;23.08;14.75;;;;;;;;;;4967320;28;20477;-85
2021/05/14 02:41:13;;;;;;;23.88;14.82;;;;;;;;;;4966010;28;20318;-85
2021/05/14 02:43:46;;;;;;;27.70;16.65;;;;;;;;;;4965764;28;20108;-85
2021/05/14 02:46:17;;;;;;;26.90;16.52;;;;;;;;;;4965987;28;20114;-85
2021/05/14 02:49:01;;;;;;;28.38;16.70;;;;;;;;;;4982648;28;20059;-85
2021/05/14 02:52:01;;;;;;;40.13;20.35;;;;;;;;;;4983046;28;20081;-85
2021/05/14 02:54:28;;;;;;;33.30;18.88;;;;;;;;;;4965169;28;20055;-85
2021/05/14 02:56:58;;;;;;;35.92;19.90;;;;;;;;;;4966898;28;20062;-84
2021/05/14 02:59:40;;;;;;;41.67;20.02;;;;;;;;;;4967342;28;20082;-85
2021/05/14 03:02:09;;;;;;;36.65;18.75;;;;;;;;;;4968521;28;20102;-85
2021/05/14 03:04:36;;;;;;;36.78;19.77;;;;;;;;;;4992700;28;20122;-85
2021/05/14 03:07:09;;;;;;;31.45;18.50;;;;;;;;;;4975692;28;20049;-84
2021/05/14 03:09:42;;;;;;;28.17;16.52;;;;;;;;;;4995662;28;20043;-85
2021/05/14 03:12:17;;;;;;;32.33;16.77;;;;;;;;;;4979140;28;20101;-84
2021/05/14 03:14:49;;;;;;;29.75;15.65;;;;;;;;;;4980025;28;20078;-87
2021/05/14 03:17:20;;;;;;;28.10;15.40;;;;;;;;;;4979756;28;20047;-86
2021/05/14 03:19:57;;;;;;;26.88;14.52;;;;;;;;;;4976442;28;20255;-86
2021/05/14 03:22:28;;;;;;;25.15;14.10;;;;;;;;;;4987918;28;20107;-86
2021/05/14 03:25:05;;;;;;;18.73;11.95;;;;;;;;;;4986609;28;20050;-85
2021/05/14 03:27:32;;;;;;;19.73;10.18;;;;;;;;;;4968772;28;20054;-85
2021/05/14 03:30:00;;;;;;;16.67;9.70;;;;;;;;;;4966394;28;20055;-85
2021/05/14 03:32:47;;;;;;;13.63;9.02;;;;;;;;;;4986379;28;20054;-85
2021/05/14 03:35:18;;;;;;;17.55;8.60;;;;;;;;;;4995969;28;20043;-86
2021/05/14 03:37:47;;;;;;;17.73;9.38;;;;;;;;;;4979375;28;20066;-85
2021/05/14 03:42:59;;;;;;;18.73;7.57;;;;;;;;;;4989694;28;20110;-84
2021/05/14 03:45:36;;;;;;;20.45;8.93;;;;;;;;;;4979405;28;20058;-85
2021/05/14 03:48:18;;;;;;;16.45;8.68;;;;;;;;;;5002654;28;20086;-85
2021/05/14 03:50:50;;;;;;;23.55;9.32;;;;;;;;;;4987142;28;20076;-85
2021/05/14 03:53:31;;;;;;;21.38;8.73;;;;;;;;;;4985976;28;20153;-85
2021/05/14 03:55:59;;;;;;;16.70;8.55;;;;;;;;;;5001623;28;20073;-85
2021/05/14 03:58:30;;;;;;;19.27;8.18;;;;;;;;;;5001492;28;20117;-85
2021/05/14 04:01:08;;;;;;;23.67;8.43;;;;;;;;;;5002376;28;20061;-85
2021/05/14 04:03:38;;;;;;;20.55;7.93;;;;;;;;;;5001833;28;20365;-84
2021/05/14 04:06:06;;;;;;;18.30;7.85;;;;;;;;;;4985480;28;20054;-85
2021/05/14 04:08:36;;;;;;;17.55;7.90;;;;;;;;;;4984697;28;20058;-86
2021/05/14 04:11:29;;;;;;;18.83;7.68;;;;;;;;;;4983049;28;20081;-85
2021/05/14 04:16:52;;;;;;;22.75;8.18;;;;;;;;;;5001933;28;20065;-84
2021/05/14 04:19:34;;;;;;;16.67;8.73;;;;;;;;;;4981736;28;20090;-86
2021/05/14 04:22:06;;;;;;;15.38;8.48;;;;;;;;;;4982237;28;20082;-85
2021/05/14 04:24:39;;;;;;;19.33;9.35;;;;;;;;;;4983950;28;20069;-86
2021/05/14 04:27:14;;;;;;;15.48;8.35;;;;;;;;;;4983945;28;20065;-85
2021/05/14 04:29:42;;;;;;;16.23;8.20;;;;;;;;;;4986029;28;20054;-86
2021/05/14 04:32:35;;;;;;;19.25;9.02;;;;;;;;;;4985770;28;20119;-86
2021/05/14 04:35:05;;;;;;;16.30;8.63;;;;;;;;;;4985718;28;20047;-86
2021/05/14 04:37:33;;;;;;;18.92;9.60;;;;;;;;;;4986938;28;20334;-86
2021/05/14 04:40:14;;;;;;;18.63;10.00;;;;;;;;;;4987830;28;20419;-86
2021/05/14 04:42:56;;;;;;;;;;;;;;;;;;;;;
2021/05/14 04:45:32;;;;;;;24.17;8.73;;;;;;;;;;4994559;28;20111;-85
2021/05/14 04:48:10;;;;;;;20.77;9.25;;;;;;;;;;4988083;28;20039;-86
2021/05/14 04:50:41;;;;;;;23.35;9.13;;;;;;;;;;4986262;28;20258;-85
2021/05/14 04:53:13;;;;;;;23.63;9.30;;;;;;;;;;4987693;28;20059;-85
2021/05/14 04:55:46;;;;;;;19.63;9.05;;;;;;;;;;4989820;28;20070;-86
2021/05/14 04:58:25;;;;;;;21.65;8.65;;;;;;;;;;4984039;28;20043;-85
2021/05/14 05:00:55;;;;;;;20.88;9.38;;;;;;;;;;4976312;28;20363;-85
2021/05/14 05:03:25;;;;;;;25.45;9.50;;;;;;;;;;4979986;28;20096;-85
2021/05/14 05:06:00;;;;;;;21.80;9.07;;;;;;;;;;4971832;28;20038;-85
2021/05/14 05:08:33;;;;;;;26.00;9.10;;;;;;;;;;4968070;28;20055;-84
2021/05/14 05:11:12;;;;;;;24.58;8.75;;;;;;;;;;4963772;28;20110;-85
2021/05/14 05:13:43;;;;;;;23.38;9.80;;;;;;;;;;4957804;28;20066;-86
2021/05/14 05:16:42;;;;;;;22.85;8.40;;;;;;;;;;4977124;28;20228;-86
2021/05/14 05:19:12;;;;;;;18.25;8.73;;;;;;;;;;4975557;28;20059;-86
2021/05/14 05:21:42;;;;;;;20.33;8.45;;;;;;;;;;4965002;28;20089;-86
2021/05/14 05:24:13;;;;;;;21.48;8.40;;;;;;;;;;4986570;28;20069;-85
2021/05/14 05:26:44;;;;;;;28.35;9.05;;;;;;;;;;4994670;28;20069;-85
2021/05/14 05:29:17;;;;;;;19.40;8.27;;;;;;;;;;4995604;28;20098;-85
2021/05/14 05:31:48;;;;;;;19.10;7.20;;;;;;;;;;4984164;28;20061;-85
2021/05/14 05:34:20;;;;;;;16.90;6.80;;;;;;;;;;4980869;28;20411;-86
2021/05/14 05:36:48;;;;;;;15.40;7.32;;;;;;;;;;4981097;28;20054;-86
2021/05/14 05:39:16;;;;;;;22.70;7.40;;;;;;;;;;4981235;28;20399;-84
2021/05/14 05:41:59;;;;;;;16.88;7.55;;;;;;;;;;4981808;28;20399;-85
2021/05/14 05:44:32;;;;;;;23.15;7.65;;;;;;;;;;4981831;28;20077;-85
2021/05/14 05:47:14;;;;;;;22.67;7.15;;;;;;;;;;4981704;28;20125;-85
2021/05/14 05:49:43;;;;;;;23.10;6.88;;;;;;;;;;4982140;28;20047;-85
2021/05/14 05:52:12;;;;;;;24.58;8.75;;;;;;;;;;4982688;28;20054;-85
2021/05/14 05:54:53;;;;;;;19.25;8.18;;;;;;;;;;4980980;28;20058;-85
2021/05/14 05:57:26;;;;;;;16.35;7.00;;;;;;;;;;4980686;28;20054;-85
2021/05/14 05:59:56;;;;;;;18.77;7.03;;;;;;;;;;4982218;28;20062;-84
2021/05/14 06:02:29;;;;;;;19.02;7.05;;;;;;;;;;4982117;28;20062;-85
2021/05/14 06:05:24;;;;;;;;;;;;;;;;;;4984242;28;20355;-86
2021/05/14 06:07:55;;;;;;;25.83;7.50;;;;;;;;;;4979544;28;20209;-85
2021/05/14 06:10:32;;;;;;;13.43;6.55;;;;;;;;;;4979250;28;20129;-85
2021/05/14 06:13:01;;;;;;;24.77;7.97;;;;;;;;;;4981606;28;20121;-84
2021/05/14 06:15:29;;;;;;;17.92;6.95;;;;;;;;;;4985026;28;20090;-85
2021/05/14 06:17:59;;;;;;;14.50;6.28;;;;;;;;;;4989256;28;20250;-85
2021/05/14 06:20:32;;;;;;;16.95;6.22;;;;;;;;;;5002544;28;20260;-85
2021/05/14 06:23:05;;;;;;;13.90;5.53;;;;;;;;;;4990177;28;20054;-85
2021/05/14 06:25:40;;;;;;;16.60;6.00;;;;;;;;;;4989694;28;20134;-85
2021/05/14 06:28:19;;;;;;;15.05;5.22;;;;;;;;;;4991625;28;20057;-85
2021/05/14 06:30:48;;;;;;;19.77;6.03;;;;;;;;;;4992040;28;20073;-85
2021/05/14 06:33:21;;;;;;;13.45;5.25;;;;;;;;;;4992263;28;20081;-84
2021/05/14 06:35:50;;;;;;;16.98;5.75;;;;;;;;;;4991714;28;20058;-85
2021/05/14 06:38:18;;;;;;;16.88;6.43;;;;;;;;;;5000080;28;20069;-84
2021/05/14 06:40:47;;;;;;;18.23;5.22;;;;;;;;;;4984704;28;20093;-84
2021/05/14 06:43:28;;;;;;;17.20;6.40;;;;;;;;;;4985895;28;20058;-85
2021/05/14 06:46:01;;;;;;;21.77;6.18;;;;;;;;;;5001998;28;20098;-84
2021/05/14 06:48:35;;;;;;;20.13;6.18;;;;;;;;;;4984756;28;20118;-86
2021/05/14 06:51:09;;;;;;;22.73;6.15;;;;;;;;;;5000653;28;20109;-86
2021/05/14 06:53:37;;;;;;;17.52;5.60;;;;;;;;;;4999471;28;20241;-85
2021/05/14 06:56:10;;;;;;;16.85;6.15;;;;;;;;;;4998688;28;20108;-85
2021/05/14 06:58:51;;;;;;;17.65;5.28;;;;;;;;;;4999998;28;20062;-86
2021/05/14 07:01:44;;;;;;;17.77;5.18;;;;;;;;;;4999043;28;20054;-86
2021/05/14 07:04:32;;;;;;;19.88;5.93;;;;;;;;;;4964585;28;20051;-85
2021/05/14 07:07:17;;;;;;;20.77;5.38;;;;;;;;;;4965383;28;20055;-85
2021/05/14 07:10:00;;;;;;;12.95;5.18;;;;;;;;;;4964327;28;20057;-85
2021/05/14 07:12:34;;;;;;;20.35;6.10;;;;;;;;;;4964298;28;20176;-86
2021/05/14 07:15:05;;;;;;;25.60;8.07;;;;;;;;;;4979158;28;20578;-86
2021/05/14 07:17:43;;;;;;;20.83;7.00;;;;;;;;;;4995964;28;20066;-86
2021/05/14 07:20:20;;;;;;;17.58;7.18;;;;;;;;;;4998291;28;20223;-85
2021/05/14 07:23:00;;;;;;;25.40;7.57;;;;;;;;;;4981342;28;20077;-85
2021/05/14 07:25:30;;;;;;;24.23;7.97;;;;;;;;;;4981981;28;20396;-85
2021/05/14 07:27:57;;;;;;;20.38;6.50;;;;;;;;;;4981748;28;20156;-85
2021/05/14 07:30:28;;;;;;;20.67;6.05;;;;;;;;;;4982375;28;20058;-85
2021/05/14 07:33:12;;;;;;;14.60;5.90;;;;;;;;;;4984026;28;20105;-85
2021/05/14 07:36:05;;;;;;;18.67;6.18;;;;;;;;;;4999564;28;20065;-86
2021/05/14 07:39:20;;;;;;;19.85;5.50;;;;;;;;;;4984377;28;20091;-84
2021/05/14 07:42:00;;;;;;;14.05;4.75;;;;;;;;;;5000023;28;20091;-85
2021/05/14 07:44:53;;;;;;;17.40;4.70;;;;;;;;;;4983291;28;20058;-86
2021/05/14 07:47:34;;;;;;;12.02;4.15;;;;;;;;;;4998809;28;20061;-85
2021/05/14 07:50:29;;;;;;;19.92;4.85;;;;;;;;;;4986641;28;20165;-85
2021/05/14 07:53:21;;;;;;;16.27;4.13;;;;;;;;;;4970794;28;20112;-87
2021/05/14 07:56:00;;;;;;;16.45;3.95;;;;;;;;;;4998958;28;20164;-85
2021/05/14 07:58:33;;;;;;;20.45;4.18;;;;;;;;;;5001668;28;20064;-85
2021/05/14 08:01:18;;;;;;;20.20;4.07;;;;;;;;;;5002507;28;20088;-85
2021/05/14 08:04:15;;;;;;;17.00;3.80;;;;;;;;;;4988253;28;20062;-86
2021/05/14 08:06:56;;;;;;;22.90;4.85;;;;;;;;;;4966271;28;20063;-86
2021/05/14 08:09:55;;;;;;;13.68;4.55;;;;;;;;;;4963851;28;20054;-85
2021/05/14 08:12:49;;;;;;;16.38;4.82;;;;;;;;;;4970357;28;20093;-86
2021/05/14 08:15:41;;;;;;;21.40;4.45;;;;;;;;;;4985255;28;20431;-84
2021/05/14 08:18:17;;;;;;;18.33;4.15;;;;;;;;;;4979253;28;20065;-87
2021/05/14 08:30:25;;;;;;;19.15;3.90;;;;;;;;;;4996615;28;20051;-85
2021/05/14 08:33:39;;;;;;;12.75;3.47;;;;;;;;;;4994378;28;20242;-85
2021/05/14 08:36:19;;;;;;;12.73;3.40;;;;;;;;;;4998961;28;20122;-85
2021/05/14 08:39:02;;;;;;;16.45;3.38;;;;;;;;;;5012678;28;20096;-86
2021/05/14 08:54:41;;;;;;;9.15;3.10;;;;;;;;;;4973882;28;20051;-85
2021/05/14 08:57:26;;;;;;;15.30;3.75;;;;;;;;;;4963805;28;20177;-84
2021/05/14 09:00:39;;;;;;;15.25;3.90;;;;;;;;;;4959108;29;20055;-85
2021/05/14 09:03:53;;;;;;;12.15;3.88;;;;;;;;;;4979874;28;20060;-84
2021/05/14 09:06:46;;;;;;;15.60;3.70;;;;;;;;;;4950357;29;20059;-85
2021/05/14 09:09:24;;;;;;;17.77;3.92;;;;;;;;;;4955726;29;20114;-85
2021/05/14 09:12:40;;;;;;;15.23;3.53;;;;;;;;;;4959491;29;20047;-84
2021/05/14 09:34:50;;;;;;;14.27;3.72;;;;;;;24.32;30.88;100672.38;6141741;22;1228779;-82
2021/05/14 09:37:24;;;;;;;14.10;3.92;;;;;;;24.84;30.31;100675.59;6139942;23;20074;-81
2021/05/14 09:40:20;;;;;;;13.38;3.67;;;;;;;25.40;29.31;100677.47;6157977;23;20021;-84
2021/05/14 09:42:57;;;;;;;10.25;3.97;;;;;;;25.66;28.84;100678.47;6149381;22;20021;-81
2021/05/14 09:45:35;;;;;;;14.50;4.38;;;;;;;26.20;27.92;100678.63;6150416;22;20017;-82
2021/05/14 09:48:16;;;;;;;11.52;4.25;;;;;;;26.68;27.09;100672.19;6150088;22;20033;-83
2021/05/14 09:50:44;;;;;;;11.73;3.55;;;;;;;26.38;27.30;100670.75;6177256;22;20023;-83
2021/05/14 09:53:16;;;;;;;12.95;4.20;;;;;;;26.97;26.46;100666.66;6141693;23;20098;-84
2021/05/14 09:56:02;;;;;;;13.95;4.20;;;;;;;27.47;26.18;100671.28;6159713;23;20025;-84
2021/05/14 09:58:33;;;;;;;16.20;4.20;;;;;;;27.42;26.02;100674.41;6141279;23;20032;-85
2021/05/14 10:01:02;;;;;;;8.93;3.22;;;;;;;28.27;25.59;100674.44;6138090;23;20079;-83
2021/05/14 10:03:31;;;;;;;16.13;4.00;;;;;;;28.66;25.37;100679.97;6163448;23;20036;-84
2021/05/14 10:06:03;;;;;;;10.80;3.88;;;;;;;29.06;23.95;100678.31;6146570;23;20105;-84
2021/05/14 10:08:33;;;;;;;11.40;3.83;;;;;;;28.76;24.11;100676.31;6177741;22;20046;-85
2021/05/14 10:11:04;;;;;;;9.88;3.90;;;;;;;28.55;25.12;100677.66;6178408;22;20045;-86
2021/05/14 10:13:36;;;;;;;12.40;3.97;;;;;;;28.24;25.05;100674.75;6154013;22;20043;-84
2021/05/14 10:16:06;;;;;;;12.02;3.40;;;;;;;28.73;25.37;100673.00;6139641;23;20313;-84
2021/05/14 10:18:43;;;;;;;10.00;3.50;;;;;;;28.93;24.42;100675.31;6165256;23;20028;-84
2021/05/14 10:21:34;;;;;;;7.90;3.15;;;;;;;28.74;24.95;100674.69;6161693;23;20040;-84
2021/05/14 10:24:06;;;;;;;11.98;4.20;;;;;;;28.36;25.33;100680.59;6261800;22;20458;-85
2021/05/14 10:26:39;;;;;;;15.32;4.55;;;;;;;28.40;25.87;100671.31;6137278;23;20040;-84
2021/05/14 10:29:14;;;;;;;15.18;4.57;;;;;;;28.65;24.78;100674.84;6138658;23;20088;-85
2021/05/14 10:31:46;;;;;;;10.98;4.00;;;;;;;28.26;25.51;100671.91;6172761;23;20040;-86
2021/05/14 10:34:15;;;;;;;11.73;4.20;;;;;;;28.16;25.90;100664.16;6166430;23;20021;-84
2021/05/14 10:36:47;;;;;;;12.70;4.10;;;;;;;27.96;25.37;100666.22;6164504;22;20435;-86
2021/05/14 10:39:42;;;;;;;20.05;4.50;;;;;;;27.83;25.98;100665.88;6130802;23;20026;-85
2021/05/14 10:42:11;;;;;;;11.80;4.75;;;;;;;28.01;24.82;100666.56;6134962;22;20039;-85
2021/05/14 10:44:48;;;;;;;9.23;4.10;;;;;;;27.96;25.48;100661.78;6165096;22;20117;-84
2021/05/14 10:47:38;;;;;;;8.85;4.50;;;;;;;28.44;25.07;100656.75;6156858;23;20087;-84
2021/05/14 10:50:33;;;;;;;13.05;4.55;;;;;;;28.68;24.00;100659.41;6156261;23;20176;-86
2021/05/14 10:53:44;;;;;;;14.18;4.60;;;;;;;28.71;22.87;100656.44;6161277;22;20028;-86
2021/05/14 10:56:14;;;;;;;9.55;3.95;;;;;;;28.92;24.03;100658.59;6159282;23;20029;-85
2021/05/14 10:58:48;;;;;;;14.73;4.60;;;;;;;29.08;24.19;100660.41;6149975;23;20192;-86
2021/05/14 11:01:34;;;;;;;7.55;3.88;;;;;;;28.72;24.47;100660.75;6152480;23;20081;-85
2021/05/14 11:04:03;;;;;;;7.57;3.75;;;;;;;28.96;24.07;100661.75;6126222;23;20076;-84
2021/05/14 11:06:48;;;;;;;10.02;3.70;;;;;;;29.17;24.33;100658.56;6129106;23;20065;-86
2021/05/14 11:09:16;;;;;;;11.50;4.00;;;;;;;28.79;24.55;100660.91;6125196;23;20025;-85
2021/05/14 11:12:08;;;;;;;12.05;3.90;;;;;;;28.70;24.61;100661.94;6128188;23;20029;-84
2021/05/14 11:14:51;;;;;;;9.25;3.45;;;;;;;28.78;25.33;100667.19;6133558;23;20021;-84
2021/05/14 11:17:19;;;;;;;13.68;4.10;;;;;;;28.94;25.28;100671.66;6129576;23;20025;-85
2021/05/14 11:19:49;;;;;;;9.23;4.13;;;;;;;28.72;24.71;100670.53;6127744;23;20084;-85
2021/05/14 11:22:38;;;;;;;9.82;3.90;;;;;;;28.26;25.07;100672.78;6152370;23;20233;-86
2021/05/14 11:25:23;;;;;;;14.73;4.15;;;;;;;28.26;25.36;100671.91;6144770;23;20060;-86
2021/05/14 11:27:54;;;;;;;14.90;4.03;;;;;;;28.72;24.94;100671.34;6124058;23;20029;-86
2021/05/14 11:30:34;;;;;;;10.02;4.10;;;;;;;28.65;24.85;100674.84;6127242;23;20081;-85
2021/05/14 11:33:12;;;;;;;11.27;3.53;;;;;;;28.82;24.92;100663.22;6157128;23;20062;-84
2021/05/14 11:35:50;;;;;;;11.70;3.78;;;;;;;29.20;24.42;100685.59;6186284;23;20411;-85
2021/05/14 11:38:17;;;;;;;11.32;4.30;;;;;;;29.07;24.60;100676.50;6139333;23;20156;-86
2021/05/14 11:40:47;;;;;;;14.98;4.20;;;;;;;29.08;24.34;100676.31;6185421;23;20035;-86
2021/05/14 11:43:29;;;;;;;9.80;4.55;;;;;;;29.02;24.34;100674.34;6187022;23;20025;-85
2021/05/14 11:46:13;;;;;;;10.10;4.15;;;;;;;29.44;24.44;100666.13;6139669;23;20086;-87
2021/05/14 11:48:40;;;;;;;10.82;4.25;;;;;;;29.35;24.36;100658.38;6132277;23;20017;-85
2021/05/14 11:51:12;;;;;;;9.05;3.97;;;;;;;30.09;23.98;100678.31;6157334;23;20025;-85
2021/05/14 11:53:46;;;;;;;8.95;3.85;;;;;;;30.30;22.55;100669.75;6136970;23;20025;-85
2021/05/14 11:56:21;;;;;;;7.50;3.63;;;;;;;30.76;22.63;100669.78;6136318;23;20036;-85
2021/05/14 11:59:24;;;;;;;13.88;3.90;;;;;;;31.17;21.77;100667.53;6162479;23;20029;-84
2021/05/14 12:01:54;;;;;;;12.25;3.67;;;;;;;31.84;21.85;100665.81;6153406;23;20081;-84
2021/05/14 12:04:29;;;;;;;8.93;3.45;;;;;;;31.90;21.47;100670.41;6157337;23;20021;-85
2021/05/14 12:06:58;;;;;;;11.27;3.87;;;;;;;31.19;21.44;100668.19;6168161;23;20032;-84
2021/05/14 12:09:26;;;;;;;13.45;3.53;;;;;;;31.05;21.62;100669.00;6136654;22;20860;-84
2021/05/14 12:11:54;;;;;;;9.48;3.33;;;;;;;30.31;22.95;100668.75;6127811;23;20086;-84
2021/05/14 12:14:27;;;;;;;8.48;3.25;;;;;;;30.89;22.73;100677.13;6152652;23;20149;-83
2021/05/14 12:19:51;;;;;;;10.63;2.95;;;;;;;30.60;21.94;100678.69;6161348;23;20062;-85
2021/05/14 12:22:22;;;;;;;12.20;4.05;;;;;;;30.33;22.83;100676.53;6133359;23;20033;-85
2021/05/14 12:24:50;;;;;;;9.48;2.67;;;;;;;30.70;22.94;100671.31;6127183;23;20301;-84
2021/05/14 12:27:25;;;;;;;9.48;3.63;;;;;;;31.17;22.59;100675.50;6128651;23;20104;-84
2021/05/14 12:30:00;;;;;;;13.02;3.63;;;;;;;31.36;22.76;100674.19;6155718;23;20029;-84
2021/05/14 12:32:29;;;;;;;9.48;3.15;;;;;;;30.82;22.04;100684.16;6130211;23;20100;-84
2021/05/14 12:35:16;;;;;;;;;;;;;;;;;;;;;
2021/05/14 12:38:07;;;;;;;10.15;3.28;;;;;;;31.10;22.23;100671.13;6095277;23;20140;-84
2021/05/14 12:41:07;;;;;;;8.45;2.67;;;;;;;31.37;22.65;100672.34;6124731;23;20030;-86
2021/05/14 12:43:44;;;;;;;10.10;3.63;;;;;;;31.24;21.82;100675.63;6164643;23;20014;-84
2021/05/14 12:46:18;;;;;;;11.98;3.60;;;;;;;30.72;22.60;100669.28;6164569;22;20069;-84
2021/05/14 12:49:09;;;;;;;10.38;3.45;;;;;;;30.72;23.29;100676.44;6137039;22;20026;-84
2021/05/14 12:51:38;;;;;;;16.58;3.97;;;;;;;31.19;23.53;100670.84;6124616;23;20365;-86
2021/05/14 12:54:08;;;;;;;10.88;3.53;;;;;;;31.80;22.21;100668.81;6150204;23;20077;-86
2021/05/14 12:56:42;;;;;;;10.90;3.70;;;;;;;31.68;21.82;100670.31;6126817;23;20048;-86
2021/05/14 12:59:26;;;;;;;12.35;3.17;;;;;;;31.22;22.46;100670.47;6127883;23;20736;-86
2021/05/14 13:01:58;;;;;;;10.18;3.28;;;;;;;31.31;23.13;100673.09;6131653;23;20049;-87
2021/05/14 13:04:38;;;;;;;11.82;3.35;;;;;;;31.59;21.89;100671.44;6127847;23;20030;-85
2021/05/14 13:07:06;;;;;;;10.75;3.17;;;;;;;31.38;21.99;100676.66;6129285;23;20029;-85
2021/05/14 13:09:34;;;;;;;12.90;3.50;;;;;;;31.09;22.46;100672.09;6153583;23;20029;-86
2021/05/14 13:12:04;;;;;;;15.38;3.35;;;;;;;30.75;22.55;100673.44;6126315;23;20026;-85
2021/05/14 13:14:31;;;;;;;13.02;3.90;;;;;;;30.06;23.80;100676.00;6150826;23;20025;-85
2021/05/14 13:16:58;;;;;;;15.25;3.22;;;;;;;30.01;24.14;100679.19;6148786;23;20100;-86
2021/05/14 13:19:27;;;;;;;8.27;3.10;;;;;;;29.98;23.43;100674.22;6125070;23;20037;-85
2021/05/14 13:22:04;;;;;;;10.13;3.50;;;;;;;29.50;23.84;100685.84;6151025;23;20168;-86
2021/05/14 13:24:31;;;;;;;14.07;3.67;;;;;;;29.26;24.31;100681.44;6127994;23;20029;-86
2021/05/14 13:27:02;;;;;;;16.10;3.67;;;;;;;29.45;23.99;100681.03;6129315;23;20112;-85
2021/05/14 13:29:30;;;;;;;12.50;4.07;;;;;;;29.08;24.00;100686.91;6150040;23;20239;-85
2021/05/14 13:32:15;;;;;;;12.50;3.50;;;;;;;29.54;24.11;100692.50;6153207;23;20118;-86
2021/05/14 13:34:46;;;;;;;11.75;3.55;;;;;;;29.70;24.31;100688.94;6130848;23;20060;-85
2021/05/14 13:37:13;;;;;;;12.55;3.40;;;;;;;29.64;24.18;100692.31;6156297;23;20056;-86
2021/05/14 13:39:43;;;;;;;11.77;3.40;;;;;;;29.92;24.17;100693.50;6150548;23;20358;-85
2021/05/14 13:42:12;;;;;;;16.23;3.47;;;;;;;30.20;23.64;100693.88;6152604;23;20026;-87
2021/05/14 13:44:55;;;;;;;12.45;3.90;;;;;;;30.59;23.64;100698.25;6153640;23;20021;-85
2021/05/14 13:47:35;;;;;;;9.77;4.38;;;;;;;30.39;23.31;100687.28;6137882;22;20103;-86
2021/05/14 13:50:09;;;;;;;15.30;3.60;;;;;;;30.23;23.16;100690.88;6165752;23;20243;-85
2021/05/14 13:53:04;;;;;;;10.68;3.30;;;;;;;31.08;23.01;100679.25;6155252;23;20037;-85
2021/05/14 13:55:39;;;;;;;11.95;3.40;;;;;;;31.44;22.39;100684.75;6155988;23;20029;-85
2021/05/14 13:58:22;;;;;;;13.93;3.92;;;;;;;31.39;22.02;100681.00;6138322;23;20039;-85
2021/05/14 14:00:57;;;;;;;10.05;3.33;;;;;;;31.54;21.84;100695.09;6166586;23;20026;-86
2021/05/14 14:03:44;;;;;;;9.90;3.55;;;;;;;31.51;22.06;100679.50;6159191;22;20026;-86
2021/05/14 14:06:58;;;;;;;9.43;3.67;;;;;;;31.03;22.34;100681.63;6159907;23;20361;-89
2021/05/14 14:09:27;;;;;;;14.05;3.67;;;;;;;30.72;23.36;100674.59;6155073;23;20079;-84
2021/05/14 14:11:55;;;;;;;12.00;4.15;;;;;;;30.31;23.19;100679.38;6129482;23;20060;-85
2021/05/14 14:14:25;;;;;;;14.02;3.80;;;;;;;29.85;24.49;100681.91;6127665;23;20056;-87
2021/05/14 14:16:55;;;;;;;12.52;4.10;;;;;;;29.53;24.18;100680.22;6130313;23;20029;-85
2021/05/14 14:19:28;;;;;;;12.85;3.63;;;;;;;29.67;24.50;100678.66;6130706;23;20113;-83
2021/05/14 14:22:00;;;;;;;14.85;3.95;;;;;;;28.96;24.55;100677.66;6280373;22;20056;-83
2021/05/14 14:24:29;;;;;;;9.98;3.33;;;;;;;29.27;25.40;100679.59;6128899;23;20022;-83
2021/05/14 14:27:04;;;;;;;17.05;3.80;;;;;;;29.45;24.54;100680.22;6157273;23;20094;-84
2021/05/14 14:29:38;;;;;;;;;;;;;;;29.40;24.31;100680.72;6130232;23;20187;-83
2021/05/14 14:32:08;;;;;;;10.50;3.63;;;;;;;29.11;24.43;100678.63;6151280;23;19932;-82
2021/05/14 14:34:35;;;;;;;7.90;3.58;;;;;;;29.08;25.42;100680.78;6170911;23;20108;-83
2021/05/14 14:37:18;;;;;;;12.60;3.60;;;;;;;29.18;25.37;100679.63;6157371;23;20285;-83
2021/05/14 14:39:46;;;;;;;11.10;4.38;;;;;;;29.28;25.34;100679.41;6157379;23;20114;-83
2021/05/14 14:42:14;;;;;;;11.55;2.97;;;;;;;29.74;24.94;100672.50;6135326;23;20037;-83
2021/05/14 14:44:44;;;;;;;13.38;3.75;;;;;;;29.55;24.57;100680.88;6132640;23;20029;-84